createdAt,value
2019-05-22T00:00:30.859Z,84.40
2019-05-22T00:03:03.290Z,84.60
2019-05-22T00:05:35.728Z,84.70
2019-05-22T00:08:05.471Z,84.30
2019-05-22T00:10:34.646Z,83.60
2019-05-22T00:13:06.986Z,83.70
2019-05-22T00:15:38.617Z,83.50
2019-05-22T00:18:07.651Z,83.80
2019-05-22T00:20:37.344Z,83.10
2019-05-22T00:23:12.847Z,83.00
2019-05-22T00:25:44.980Z,81.90
2019-05-22T00:28:14.922Z,82.30
2019-05-22T00:30:45.467Z,82.90
2019-05-22T00:33:14.978Z,83.30
2019-05-22T00:35:44.800Z,83.90
2019-05-22T00:38:15.213Z,83.70
2019-05-22T00:40:51.242Z,84.10
2019-05-22T00:43:21.657Z,84.30
2019-05-22T00:45:50.928Z,83.90
2019-05-22T00:48:22.144Z,84.20
2019-05-22T00:51:04.142Z,82.70
2019-05-22T00:53:44.673Z,83.30
2019-05-22T00:56:17.058Z,84.20
2019-05-22T00:58:58.219Z,84.70
2019-05-22T01:01:32.490Z,84.20
2019-05-22T01:04:02.863Z,83.90
2019-05-22T01:06:33.488Z,83.80
2019-05-22T01:09:05.818Z,83.70
2019-05-22T01:11:36.170Z,83.30
2019-05-22T01:14:05.397Z,82.90
2019-05-22T01:16:34.381Z,83.10
2019-05-22T01:19:05.936Z,83.20
2019-05-22T01:21:36.592Z,84.10
2019-05-22T01:24:07.437Z,84.20
2019-05-22T01:26:38.571Z,83.60
2019-05-22T01:29:09.403Z,83.10
2019-05-22T01:31:40.517Z,83.50
2019-05-22T01:34:15.994Z,83.10
2019-05-22T01:36:49.660Z,82.20
2019-05-22T01:39:26.106Z,82.10
2019-05-22T01:41:57.539Z,82.90
2019-05-22T01:44:28.578Z,83.30
2019-05-22T01:47:00.433Z,82.70
2019-05-22T01:49:30.841Z,82.90
2019-05-22T01:51:59.663Z,83.70
2019-05-22T01:54:30.315Z,84.10
2019-05-22T01:57:04.533Z,84.90
2019-05-22T01:59:35.725Z,85.10
2019-05-22T02:02:04.537Z,84.20
2019-05-22T02:04:34.280Z,83.90
2019-05-22T02:07:04.028Z,83.60
2019-05-22T02:09:37.979Z,83.50
2019-05-22T02:12:11.484Z,83.40
2019-05-22T02:14:44.512Z,83.90
2019-05-22T02:17:15.965Z,83.50
2019-05-22T02:19:44.713Z,82.50
2019-05-22T02:22:15.546Z,81.50
2019-05-22T02:24:45.715Z,81.30
2019-05-22T02:27:16.589Z,81.90
2019-05-22T02:29:47.077Z,82.40
2019-05-22T02:32:17.436Z,82.20
2019-05-22T02:34:46.198Z,81.80
2019-05-22T02:37:17.870Z,81.80
2019-05-22T02:39:48.044Z,82.30
2019-05-22T02:42:21.018Z,81.50
2019-05-22T02:44:50.296Z,80.70
2019-05-22T02:47:21.687Z,81.00
2019-05-22T02:49:51.751Z,80.20
2019-05-22T02:52:23.103Z,80.20
2019-05-22T02:54:52.403Z,80.50
2019-05-22T02:57:22.032Z,81.00
2019-05-22T02:59:50.873Z,81.00
2019-05-22T03:02:20.952Z,81.30
2019-05-22T03:04:59.630Z,80.90
2019-05-22T03:07:30.753Z,80.30
2019-05-22T03:10:01.888Z,82.00
2019-05-22T03:12:32.810Z,81.40
2019-05-22T03:15:02.268Z,80.70
2019-05-22T03:17:32.026Z,80.70
2019-05-22T03:20:04.664Z,80.50
2019-05-22T03:22:52.991Z,80.70
2019-05-22T03:25:22.198Z,80.40
2019-05-22T03:27:52.061Z,80.50
2019-05-22T03:30:31.292Z,81.20
2019-05-22T03:33:02.121Z,81.60
2019-05-22T03:35:35.031Z,81.40
2019-05-22T03:38:06.201Z,81.60
2019-05-22T03:40:37.498Z,81.40
2019-05-22T03:43:09.327Z,81.60
2019-05-22T03:45:39.912Z,81.80
2019-05-22T03:48:10.132Z,80.90
2019-05-22T03:50:40.966Z,80.80
2019-05-22T03:53:15.938Z,81.10
2019-05-22T03:55:46.404Z,81.00
2019-05-22T03:58:15.559Z,80.20
2019-05-22T04:00:45.255Z,80.40
2019-05-22T04:03:16.119Z,80.10
2019-05-22T04:05:47.598Z,79.80
2019-05-22T04:08:17.179Z,79.60
2019-05-22T04:11:05.569Z,80.00
2019-05-22T04:13:36.115Z,79.90
2019-05-22T04:16:08.263Z,79.70
2019-05-22T04:18:39.274Z,79.60
2019-05-22T04:21:08.922Z,79.30
2019-05-22T04:23:39.412Z,79.00
2019-05-22T04:26:09.658Z,79.10
2019-05-22T04:28:47.811Z,79.90
2019-05-22T04:31:17.703Z,80.20
2019-05-22T04:33:47.106Z,79.10
2019-05-22T04:36:16.733Z,79.10
2019-05-22T04:38:46.412Z,79.10
2019-05-22T04:41:16.866Z,79.40
2019-05-22T04:43:45.740Z,79.40
2019-05-22T04:46:17.613Z,78.70
2019-05-22T04:48:46.871Z,78.70
2019-05-22T04:51:22.783Z,78.60
2019-05-22T04:53:51.789Z,78.90
2019-05-22T04:56:20.682Z,79.00
2019-05-22T04:58:49.380Z,78.10
2019-05-22T05:01:19.846Z,77.50
2019-05-22T05:03:48.564Z,77.00
2019-05-22T05:06:19.727Z,77.00
2019-05-22T05:08:49.416Z,77.40
2019-05-22T05:11:19.175Z,76.70
2019-05-22T05:13:47.931Z,75.70
2019-05-22T05:16:18.144Z,75.40
2019-05-22T05:18:47.489Z,75.10
2019-05-22T05:21:16.224Z,75.40
2019-05-22T05:23:45.070Z,76.40
2019-05-22T05:26:14.435Z,76.40
2019-05-22T05:28:43.751Z,77.40
2019-05-22T05:31:13.333Z,78.00
2019-05-22T05:34:00.086Z,77.60
2019-05-22T05:36:29.440Z,76.30
2019-05-22T05:39:00.301Z,75.80
2019-05-22T05:41:29.896Z,75.80
2019-05-22T05:43:59.633Z,74.40
2019-05-22T05:46:28.588Z,73.80
2019-05-22T05:48:57.771Z,74.00
2019-05-22T05:51:30.286Z,74.60
2019-05-22T05:54:03.093Z,74.50
2019-05-22T05:56:33.741Z,74.50
2019-05-22T05:59:04.629Z,74.60
2019-05-22T06:01:35.448Z,75.10
2019-05-22T06:04:05.118Z,75.20
2019-05-22T06:06:38.728Z,74.00
2019-05-22T06:09:11.239Z,72.90
2019-05-22T06:11:53.062Z,72.90
2019-05-22T06:14:28.682Z,72.20
2019-05-22T06:17:14.168Z,71.90
2019-05-22T06:19:48.795Z,72.80
2019-05-22T06:22:19.860Z,73.10
2019-05-22T06:24:52.197Z,73.90
2019-05-22T06:27:25.682Z,74.40
2019-05-22T06:30:04.086Z,75.50
2019-05-22T06:32:55.153Z,76.60
2019-05-22T06:35:26.979Z,76.20
2019-05-22T06:38:30.542Z,75.30
2019-05-22T06:40:59.370Z,76.90
2019-05-22T06:43:31.338Z,75.30
2019-05-22T06:46:00.141Z,75.40
2019-05-22T06:48:29.708Z,74.30
2019-05-22T06:50:58.576Z,74.00
2019-05-22T06:53:27.346Z,73.30
2019-05-22T06:55:56.208Z,74.40
2019-05-22T06:58:25.491Z,74.70
2019-05-22T07:00:54.501Z,74.00
2019-05-22T07:03:24.546Z,72.80
2019-05-22T07:05:54.845Z,72.80
2019-05-22T07:08:24.142Z,72.90
2019-05-22T07:10:53.474Z,73.20
2019-05-22T07:13:22.261Z,73.70
2019-05-22T07:15:52.203Z,72.00
2019-05-22T07:18:24.071Z,70.70
2019-05-22T07:20:54.650Z,71.30
2019-05-22T07:23:25.024Z,72.20
2019-05-22T07:25:54.680Z,73.30
2019-05-22T07:28:25.913Z,72.80
2019-05-22T07:30:56.006Z,70.30
2019-05-22T07:33:26.087Z,69.30
2019-05-22T07:36:15.862Z,70.50
2019-05-22T07:38:25.728Z,69.80
2019-05-22T07:40:55.806Z,70.50
2019-05-22T07:43:25.139Z,68.50
2019-05-22T07:45:55.732Z,69.80
2019-05-22T07:48:26.787Z,70.20
2019-05-22T07:50:57.018Z,70.50
2019-05-22T07:53:26.412Z,70.40
2019-05-22T07:55:57.731Z,70.00
2019-05-22T07:58:29.313Z,68.90
2019-05-22T08:01:00.694Z,68.30
2019-05-22T08:03:32.004Z,66.90
2019-05-22T08:06:01.701Z,65.30
2019-05-22T08:08:33.236Z,65.70
2019-05-22T08:11:02.126Z,66.50
2019-05-22T08:13:32.304Z,65.10
2019-05-22T08:16:01.595Z,64.50
2019-05-22T08:18:33.354Z,64.40
2019-05-22T08:21:02.413Z,63.40
2019-05-22T08:23:31.571Z,63.70
2019-05-22T08:26:01.661Z,63.10
2019-05-22T08:28:31.953Z,61.70
2019-05-22T08:31:01.588Z,62.20
2019-05-22T08:33:32.069Z,63.30
2019-05-22T08:36:03.225Z,62.50
2019-05-22T08:38:33.086Z,61.90
2019-05-22T08:41:04.415Z,62.00
2019-05-22T08:43:55.991Z,61.30
2019-05-22T08:46:06.627Z,60.50
2019-05-22T08:48:38.150Z,61.00
2019-05-22T08:51:08.308Z,60.70
2019-05-22T08:53:46.882Z,59.70
2019-05-22T08:56:08.507Z,60.10
2019-05-22T08:58:39.543Z,60.20
2019-05-22T09:01:09.434Z,59.50
2019-05-22T09:03:38.182Z,60.60
2019-05-22T09:06:06.985Z,59.50
2019-05-22T09:08:35.805Z,60.70
2019-05-22T09:11:04.808Z,60.60
2019-05-22T09:13:34.353Z,60.50
2019-05-22T09:16:04.879Z,60.20
2019-05-22T09:18:34.276Z,58.40
2019-05-22T09:21:03.698Z,56.80
2019-05-22T09:23:33.769Z,55.30
2019-05-22T09:26:02.791Z,54.80
2019-05-22T09:28:31.674Z,53.00
2019-05-22T09:31:00.632Z,53.20
2019-05-22T09:33:30.678Z,53.70
2019-05-22T09:35:59.872Z,53.40
2019-05-22T09:38:29.401Z,53.50
2019-05-22T09:40:58.762Z,53.70
2019-05-22T09:43:27.490Z,53.80
2019-05-22T09:45:56.315Z,54.60
2019-05-22T09:48:25.367Z,55.30
2019-05-22T09:50:54.318Z,55.30
2019-05-22T09:53:23.092Z,55.30
2019-05-22T09:55:52.391Z,55.50
2019-05-22T09:58:21.492Z,54.30
2019-05-22T10:00:50.165Z,54.10
2019-05-22T10:03:19.223Z,53.20
2019-05-22T10:05:49.231Z,53.10
2019-05-22T10:08:17.907Z,53.60
2019-05-22T10:10:47.506Z,54.00
2019-05-22T10:13:16.500Z,55.20
2019-05-22T10:15:45.910Z,56.80
2019-05-22T10:18:14.834Z,55.90
2019-05-22T10:20:43.794Z,55.50
2019-05-22T10:23:15.964Z,55.20
2019-05-22T10:25:43.676Z,54.50
2019-05-22T10:28:13.191Z,54.30
2019-05-22T10:30:41.981Z,53.60
2019-05-22T10:33:11.243Z,52.80
2019-05-22T10:35:40.654Z,53.00
2019-05-22T10:38:10.202Z,52.80
2019-05-22T10:40:39.193Z,52.90
2019-05-22T10:43:08.037Z,53.40
2019-05-22T10:45:37.319Z,52.90
2019-05-22T10:48:06.137Z,53.20
2019-05-22T10:50:35.131Z,52.60
2019-05-22T10:53:03.965Z,53.20
2019-05-22T10:55:33.009Z,52.80
2019-05-22T10:58:01.926Z,52.50
2019-05-22T11:00:31.106Z,51.90
2019-05-22T11:03:00.028Z,51.60
2019-05-22T11:05:29.361Z,50.50
2019-05-22T11:07:59.847Z,50.70
2019-05-22T11:10:48.072Z,50.20
2019-05-22T11:13:18.147Z,50.70
2019-05-22T11:15:47.138Z,50.70
2019-05-22T11:18:15.965Z,50.60
2019-05-22T11:20:45.518Z,50.40
2019-05-22T11:23:14.239Z,49.10
2019-05-22T11:25:43.235Z,49.50
2019-05-22T11:28:12.142Z,50.00
2019-05-22T11:30:41.243Z,46.50
2019-05-22T11:33:10.074Z,46.70
2019-05-22T11:35:40.158Z,46.80
2019-05-22T11:38:09.156Z,47.30
2019-05-22T11:40:39.530Z,47.40
2019-05-22T11:43:10.126Z,46.20
2019-05-22T11:45:39.190Z,45.80
2019-05-22T11:48:08.396Z,45.30
2019-05-22T11:50:38.181Z,45.50
2019-05-22T11:53:06.999Z,45.90
2019-05-22T11:55:45.293Z,46.70
2019-05-22T11:58:06.864Z,45.70
2019-05-22T12:00:35.850Z,43.50
2019-05-22T12:03:05.628Z,44.20
2019-05-22T12:05:35.111Z,43.10
2019-05-22T12:08:04.683Z,42.50
2019-05-22T12:10:34.016Z,42.30
2019-05-22T12:13:03.889Z,41.80
2019-05-22T12:15:34.522Z,41.60
2019-05-22T12:18:03.636Z,40.50
2019-05-22T12:20:34.456Z,40.00
2019-05-22T12:23:03.212Z,40.10
2019-05-22T12:25:32.237Z,40.50
2019-05-22T12:28:01.030Z,40.80
2019-05-22T12:30:30.935Z,39.00
2019-05-22T12:33:01.214Z,38.20
2019-05-22T12:35:30.962Z,38.50
2019-05-22T12:38:00.846Z,38.90
2019-05-22T12:40:33.759Z,39.30
2019-05-22T12:43:03.266Z,38.50
2019-05-22T12:45:33.507Z,38.60
2019-05-22T12:48:04.261Z,39.00
2019-05-22T12:50:34.531Z,39.10
2019-05-22T12:53:06.037Z,39.00
2019-05-22T12:55:35.224Z,39.40
2019-05-22T12:58:05.829Z,39.10
2019-05-22T13:00:35.513Z,39.00
2019-05-22T13:03:06.593Z,39.80
2019-05-22T13:05:37.936Z,39.80
2019-05-22T13:08:08.773Z,39.20
2019-05-22T13:10:39.009Z,38.40
2019-05-22T13:13:08.807Z,38.70
2019-05-22T13:15:39.525Z,38.00
2019-05-22T13:18:09.996Z,37.80
2019-05-22T13:20:44.138Z,37.90
2019-05-22T13:23:13.907Z,38.70
2019-05-22T13:25:42.799Z,38.10
2019-05-22T13:28:14.494Z,37.80
2019-05-22T13:30:46.487Z,37.10
2019-05-22T13:33:18.121Z,37.40
2019-05-22T13:35:48.075Z,36.60
2019-05-22T13:38:17.960Z,36.50
2019-05-22T13:40:48.587Z,36.60
2019-05-22T13:43:17.413Z,37.00
2019-05-22T13:45:46.252Z,37.50
2019-05-22T13:48:15.119Z,37.60
2019-05-22T13:50:45.093Z,36.30
2019-05-22T13:53:17.327Z,36.00
2019-05-22T13:55:46.423Z,35.70
2019-05-22T13:58:15.817Z,35.80
2019-05-22T14:00:44.854Z,37.40
2019-05-22T14:03:14.733Z,38.20
2019-05-22T14:05:44.782Z,36.30
2019-05-22T14:08:13.981Z,34.40
2019-05-22T14:10:44.295Z,34.30
2019-05-22T14:13:13.560Z,35.10
2019-05-22T14:15:50.427Z,34.20
2019-05-22T14:18:13.837Z,34.10
2019-05-22T14:20:44.161Z,34.20
2019-05-22T14:23:14.017Z,34.00
2019-05-22T14:25:43.987Z,34.00
2019-05-22T14:28:13.964Z,32.70
2019-05-22T14:30:43.749Z,33.80
2019-05-22T14:33:12.859Z,32.80
2019-05-22T14:35:48.944Z,32.80
2019-05-22T14:38:13.366Z,32.30
2019-05-22T14:40:42.830Z,32.30
2019-05-22T14:43:12.123Z,32.20
2019-05-22T14:45:42.158Z,32.20
2019-05-22T14:48:11.503Z,32.10
2019-05-22T14:50:40.313Z,32.30
2019-05-22T14:53:10.498Z,32.00
2019-05-22T14:55:40.502Z,31.70
2019-05-22T14:58:10.031Z,32.30
2019-05-22T15:00:39.384Z,32.20
2019-05-22T15:03:08.969Z,32.00
2019-05-22T15:05:37.762Z,32.70
2019-05-22T15:08:07.331Z,33.50
2019-05-22T15:10:37.518Z,34.00
2019-05-22T15:13:07.683Z,34.00
2019-05-22T15:15:40.292Z,33.90
2019-05-22T15:18:07.238Z,34.50
2019-05-22T15:20:53.430Z,34.50
2019-05-22T15:23:23.474Z,34.10
2019-05-22T15:25:52.662Z,33.70
2019-05-22T15:28:26.019Z,33.50
2019-05-22T15:30:53.001Z,33.10
2019-05-22T15:33:22.061Z,33.60
2019-05-22T15:35:51.480Z,33.70
2019-05-22T15:38:22.045Z,33.10
2019-05-22T15:40:53.165Z,33.40
2019-05-22T15:43:23.889Z,32.90
2019-05-22T15:45:54.507Z,32.50
2019-05-22T15:48:28.093Z,33.10
2019-05-22T15:50:59.950Z,33.40
2019-05-22T15:53:31.074Z,33.30
2019-05-22T15:56:05.954Z,33.60
2019-05-22T15:58:37.267Z,33.00
2019-05-22T16:01:08.881Z,33.20
2019-05-22T16:03:40.518Z,33.00
2019-05-22T16:06:11.007Z,33.60
2019-05-22T16:08:40.117Z,33.50
2019-05-22T16:11:11.933Z,33.80
2019-05-22T16:13:41.333Z,33.10
2019-05-22T16:16:11.210Z,32.90
2019-05-22T16:18:42.172Z,33.40
2019-05-22T16:21:11.455Z,33.20
2019-05-22T16:23:41.143Z,31.70
2019-05-22T16:26:11.819Z,32.30
2019-05-22T16:28:42.782Z,32.20
2019-05-22T16:31:14.119Z,32.50
2019-05-22T16:33:44.446Z,31.70
2019-05-22T16:36:14.336Z,31.10
2019-05-22T16:38:44.600Z,30.60
2019-05-22T16:41:14.434Z,30.30
2019-05-22T16:43:49.784Z,30.30
2019-05-22T16:46:16.861Z,30.10
2019-05-22T16:48:48.886Z,30.20
2019-05-22T16:51:19.999Z,30.70
2019-05-22T16:53:54.877Z,31.80
2019-05-22T16:56:24.890Z,32.60
2019-05-22T16:58:54.728Z,33.70
2019-05-22T17:01:25.826Z,34.50
2019-05-22T17:03:58.175Z,34.90
2019-05-22T17:06:27.075Z,35.40
2019-05-22T17:08:58.033Z,35.30
2019-05-22T17:11:28.478Z,34.90
2019-05-22T17:14:01.621Z,34.40
2019-05-22T17:16:33.727Z,34.70
2019-05-22T17:19:25.241Z,35.10
2019-05-22T17:21:36.458Z,35.10
2019-05-22T17:24:08.582Z,35.20
2019-05-22T17:26:37.696Z,35.30
2019-05-22T17:29:06.943Z,35.80
2019-05-22T17:31:36.492Z,36.20
2019-05-22T17:34:08.099Z,36.30
2019-05-22T17:36:38.593Z,36.10
2019-05-22T17:39:10.018Z,36.10
2019-05-22T17:41:41.401Z,36.10
2019-05-22T17:44:12.145Z,36.30
2019-05-22T17:46:43.724Z,35.10
2019-05-22T17:49:12.589Z,35.20
2019-05-22T17:51:42.577Z,34.80
2019-05-22T17:54:11.730Z,35.00
2019-05-22T17:56:41.300Z,35.10
2019-05-22T17:59:10.209Z,35.10
2019-05-22T18:01:40.173Z,35.00
2019-05-22T18:04:09.351Z,35.50
2019-05-22T18:06:38.135Z,35.40
2019-05-22T18:09:09.176Z,35.60
2019-05-22T18:11:38.240Z,36.60
2019-05-22T18:14:07.878Z,36.20
2019-05-22T18:16:36.961Z,36.60
2019-05-22T18:19:07.086Z,36.00
2019-05-22T18:21:36.981Z,36.40
2019-05-22T18:24:06.241Z,36.00
2019-05-22T18:26:35.049Z,36.40
2019-05-22T18:29:04.310Z,36.60
2019-05-22T18:31:33.305Z,36.10
2019-05-22T18:34:02.021Z,36.00
2019-05-22T18:36:30.733Z,36.20
2019-05-22T18:38:59.577Z,35.70
2019-05-22T18:41:28.396Z,36.00
2019-05-22T18:43:57.817Z,35.40
2019-05-22T18:46:27.883Z,35.30
2019-05-22T18:48:57.148Z,35.00
2019-05-22T18:51:26.527Z,35.50
2019-05-22T18:53:55.241Z,36.90
2019-05-22T18:56:24.026Z,37.40
2019-05-22T18:58:53.841Z,37.60
2019-05-22T19:01:23.707Z,38.00
2019-05-22T19:03:52.455Z,37.60
2019-05-22T19:06:30.065Z,37.90
2019-05-22T19:08:52.694Z,37.90
2019-05-22T19:11:21.493Z,38.40
2019-05-22T19:13:50.282Z,38.90
2019-05-22T19:16:19.164Z,38.80
2019-05-22T19:18:47.878Z,39.00
2019-05-22T19:21:16.613Z,38.80
2019-05-22T19:23:45.469Z,38.70
2019-05-22T19:26:14.357Z,39.00
2019-05-22T19:28:44.613Z,39.00
2019-05-22T19:31:13.578Z,39.30
2019-05-22T19:33:43.607Z,38.90
2019-05-22T19:36:12.637Z,38.90
2019-05-22T19:38:41.488Z,38.80
2019-05-22T19:41:10.389Z,38.80
2019-05-22T19:43:39.706Z,38.70
2019-05-22T19:46:08.678Z,38.70
2019-05-22T19:48:37.485Z,39.60
2019-05-22T19:51:06.682Z,40.00
2019-05-22T19:53:35.583Z,39.20
2019-05-22T19:56:05.115Z,39.60
2019-05-22T19:58:33.877Z,39.10
2019-05-22T20:01:03.494Z,39.80
2019-05-22T20:03:33.181Z,39.70
2019-05-22T20:06:02.482Z,40.20
2019-05-22T20:08:31.212Z,40.00
2019-05-22T20:11:00.411Z,40.00
2019-05-22T20:13:29.274Z,40.40
2019-05-22T20:15:58.091Z,40.60
2019-05-22T20:18:26.915Z,41.00
2019-05-22T20:20:56.473Z,41.30
2019-05-22T20:23:35.383Z,41.60
2019-05-22T20:25:56.099Z,42.00
2019-05-22T20:28:26.040Z,42.70
2019-05-22T20:30:55.180Z,43.10
2019-05-22T20:33:26.868Z,42.00
2019-05-22T20:35:54.597Z,42.70
2019-05-22T20:38:24.666Z,43.70
2019-05-22T20:40:53.385Z,43.10
2019-05-22T20:43:22.776Z,43.00
2019-05-22T20:45:53.517Z,43.50
2019-05-22T20:48:33.183Z,44.20
2019-05-22T20:51:04.107Z,44.10
2019-05-22T20:53:52.203Z,44.40
2019-05-22T20:56:08.111Z,46.00
2019-05-22T20:58:36.897Z,44.70
2019-05-22T21:01:07.464Z,44.80
2019-05-22T21:03:36.774Z,45.20
2019-05-22T21:06:08.543Z,44.80
2019-05-22T21:08:38.139Z,44.90
2019-05-22T21:11:08.878Z,45.40
2019-05-22T21:13:38.201Z,45.60
2019-05-22T21:16:07.580Z,45.00
2019-05-22T21:18:38.483Z,45.40
2019-05-22T21:21:07.974Z,45.90
2019-05-22T21:23:38.230Z,46.50
2019-05-22T21:26:08.669Z,46.80
2019-05-22T21:28:38.266Z,46.50
2019-05-22T21:31:08.251Z,46.70
2019-05-22T21:33:37.892Z,47.30
2019-05-22T21:36:09.734Z,47.60
2019-05-22T21:38:38.970Z,47.60
2019-05-22T21:41:08.221Z,47.70
2019-05-22T21:43:37.470Z,48.30
2019-05-22T21:46:07.129Z,48.20
2019-05-22T21:48:36.436Z,48.10
2019-05-22T21:51:05.465Z,48.70
2019-05-22T21:53:35.063Z,48.70
2019-05-22T21:56:06.256Z,49.50
2019-05-22T21:58:35.093Z,49.80
2019-05-22T22:01:09.969Z,48.70
2019-05-22T22:03:40.413Z,48.20
2019-05-22T22:06:09.843Z,48.00
2019-05-22T22:08:38.573Z,49.40
2019-05-22T22:11:09.129Z,50.00
2019-05-22T22:13:39.291Z,50.40
2019-05-22T22:16:08.929Z,50.80
2019-05-22T22:18:39.422Z,51.50
2019-05-22T22:21:09.323Z,51.70
2019-05-22T22:23:38.993Z,52.30
2019-05-22T22:26:23.979Z,52.60
2019-05-22T22:28:38.536Z,53.80
2019-05-22T22:31:09.160Z,53.90
2019-05-22T22:33:38.983Z,53.90
2019-05-22T22:36:10.113Z,54.00
2019-05-22T22:38:39.986Z,54.00
2019-05-22T22:41:10.247Z,54.30
2019-05-22T22:43:41.075Z,53.70
2019-05-22T22:46:23.312Z,53.00
2019-05-22T22:48:53.961Z,52.30
2019-05-22T22:51:25.234Z,52.40
2019-05-22T22:53:56.158Z,52.60
2019-05-22T22:56:26.809Z,52.20
2019-05-22T22:58:56.163Z,52.50
2019-05-22T23:01:29.602Z,52.70
2019-05-22T23:03:59.164Z,53.10
2019-05-22T23:06:28.106Z,53.80
2019-05-22T23:08:57.434Z,54.80
2019-05-22T23:11:27.565Z,54.60
2019-05-22T23:13:57.285Z,54.40
2019-05-22T23:16:27.547Z,54.40
2019-05-22T23:19:15.844Z,55.20
2019-05-22T23:21:45.114Z,54.60
2019-05-22T23:24:14.562Z,55.30
2019-05-22T23:26:44.744Z,54.30
2019-05-22T23:29:14.322Z,53.70
2019-05-22T23:31:44.621Z,53.40
2019-05-22T23:34:13.932Z,53.50
2019-05-22T23:36:44.413Z,55.40
2019-05-22T23:39:15.494Z,56.20
2019-05-22T23:41:45.195Z,55.00
2019-05-22T23:44:17.028Z,55.00
2019-05-22T23:46:46.289Z,54.90
2019-05-22T23:49:15.840Z,54.30
2019-05-22T23:51:45.507Z,54.90
2019-05-22T23:54:14.880Z,55.20
2019-05-22T23:56:44.365Z,53.90
2019-05-22T23:59:17.987Z,52.80
